sensor_id;sensor_type;location;lat;lon;timestamp;temperature;humidity
19037;DHT22;9651;49.138;8.900;2024-02-14T00:01:22;3.90;99.90
19037;DHT22;9651;49.138;8.900;2024-02-14T00:05:25;3.90;99.90
19037;DHT22;9651;49.138;8.900;2024-02-14T00:09:29;3.90;99.90
19037;DHT22;9651;49.138;8.900;2024-02-14T00:13:31;3.90;99.90
19037;DHT22;9651;49.138;8.900;2024-02-14T00:17:34;3.90;99.90
19037;DHT22;9651;49.138;8.900;2024-02-14T00:21:38;3.90;99.90
19037;DHT22;9651;49.138;8.900;2024-02-14T00:25:40;3.90;99.90
19037;DHT22;9651;49.138;8.900;2024-02-14T00:29:42;3.90;99.90
19037;DHT22;9651;49.138;8.900;2024-02-14T00:33:45;3.90;99.90
19037;DHT22;9651;49.138;8.900;2024-02-14T00:37:48;3.80;99.90
19037;DHT22;9651;49.138;8.900;2024-02-14T00:41:50;3.80;99.90
19037;DHT22;9651;49.138;8.900;2024-02-14T00:45:53;3.80;99.90
19037;DHT22;9651;49.138;8.900;2024-02-14T00:49:57;3.90;99.90
19037;DHT22;9651;49.138;8.900;2024-02-14T00:54:00;3.90;99.90
19037;DHT22;9651;49.138;8.900;2024-02-14T00:58:02;4.00;99.90
19037;DHT22;9651;49.138;8.900;2024-02-14T01:02:04;4.00;99.90
19037;DHT22;9651;49.138;8.900;2024-02-14T01:06:06;4.10;99.90
19037;DHT22;9651;49.138;8.900;2024-02-14T01:10:09;4.20;99.90
19037;DHT22;9651;49.138;8.900;2024-02-14T01:14:11;4.20;99.90
19037;DHT22;9651;49.138;8.900;2024-02-14T01:18:14;4.30;99.90
19037;DHT22;9651;49.138;8.900;2024-02-14T01:22:16;4.30;99.90
19037;DHT22;9651;49.138;8.900;2024-02-14T01:26:20;4.40;99.90
19037;DHT22;9651;49.138;8.900;2024-02-14T01:30:22;4.40;99.90
19037;DHT22;9651;49.138;8.900;2024-02-14T01:34:25;4.40;99.90
19037;DHT22;9651;49.138;8.900;2024-02-14T01:38:29;4.50;99.90
19037;DHT22;9651;49.138;8.900;2024-02-14T01:42:35;4.60;99.90
19037;DHT22;9651;49.138;8.900;2024-02-14T01:46:37;4.60;99.90
19037;DHT22;9651;49.138;8.900;2024-02-14T01:50:39;4.70;99.90
19037;DHT22;9651;49.138;8.900;2024-02-14T01:54:41;4.70;99.90
19037;DHT22;9651;49.138;8.900;2024-02-14T01:58:45;4.80;99.90
19037;DHT22;9651;49.138;8.900;2024-02-14T02:02:48;4.80;99.90
19037;DHT22;9651;49.138;8.900;2024-02-14T02:06:55;4.80;99.90
19037;DHT22;9651;49.138;8.900;2024-02-14T02:10:57;4.70;99.90
19037;DHT22;9651;49.138;8.900;2024-02-14T02:15:00;4.80;99.90
19037;DHT22;9651;49.138;8.900;2024-02-14T02:19:02;4.80;99.90
19037;DHT22;9651;49.138;8.900;2024-02-14T02:23:11;4.80;99.90
19037;DHT22;9651;49.138;8.900;2024-02-14T02:27:15;4.80;99.90
19037;DHT22;9651;49.138;8.900;2024-02-14T02:31:17;4.80;99.90
19037;DHT22;9651;49.138;8.900;2024-02-14T02:35:18;4.90;99.90
19037;DHT22;9651;49.138;8.900;2024-02-14T02:39:23;4.90;99.90
19037;DHT22;9651;49.138;8.900;2024-02-14T02:43:25;4.90;99.90
19037;DHT22;9651;49.138;8.900;2024-02-14T02:47:26;4.80;99.90
19037;DHT22;9651;49.138;8.900;2024-02-14T02:51:28;4.80;99.90
19037;DHT22;9651;49.138;8.900;2024-02-14T02:55:32;4.70;99.90
19037;DHT22;9651;49.138;8.900;2024-02-14T02:59:34;4.60;99.90
19037;DHT22;9651;49.138;8.900;2024-02-14T03:03:36;4.60;99.90
19037;DHT22;9651;49.138;8.900;2024-02-14T03:07:39;4.50;99.90
19037;DHT22;9651;49.138;8.900;2024-02-14T03:11:46;4.30;99.90
19037;DHT22;9651;49.138;8.900;2024-02-14T03:15:48;4.30;99.90
19037;DHT22;9651;49.138;8.900;2024-02-14T03:19:50;4.20;99.90
19037;DHT22;9651;49.138;8.900;2024-02-14T03:23:52;4.20;99.90
19037;DHT22;9651;49.138;8.900;2024-02-14T03:27:56;4.20;99.90
19037;DHT22;9651;49.138;8.900;2024-02-14T03:31:59;4.30;99.90
19037;DHT22;9651;49.138;8.900;2024-02-14T03:36:04;4.40;99.90
19037;DHT22;9651;49.138;8.900;2024-02-14T03:40:07;4.40;99.90
19037;DHT22;9651;49.138;8.900;2024-02-14T03:44:11;4.50;99.90
19037;DHT22;9651;49.138;8.900;2024-02-14T03:48:13;4.60;99.90
19037;DHT22;9651;49.138;8.900;2024-02-14T03:52:15;4.70;99.90
19037;DHT22;9651;49.138;8.900;2024-02-14T03:56:17;4.80;99.90
19037;DHT22;9651;49.138;8.900;2024-02-14T04:00:21;4.90;99.90
19037;DHT22;9651;49.138;8.900;2024-02-14T04:04:23;5.00;99.90
19037;DHT22;9651;49.138;8.900;2024-02-14T04:08:25;5.10;99.90
19037;DHT22;9651;49.138;8.900;2024-02-14T04:12:27;5.20;99.90
19037;DHT22;9651;49.138;8.900;2024-02-14T04:16:30;5.20;99.90
19037;DHT22;9651;49.138;8.900;2024-02-14T04:20:32;5.20;99.90
19037;DHT22;9651;49.138;8.900;2024-02-14T04:24:34;5.30;99.90
19037;DHT22;9651;49.138;8.900;2024-02-14T04:28:38;5.20;99.90
19037;DHT22;9651;49.138;8.900;2024-02-14T04:32:42;5.20;99.90
19037;DHT22;9651;49.138;8.900;2024-02-14T04:36:45;5.30;99.90
19037;DHT22;9651;49.138;8.900;2024-02-14T04:40:46;5.30;99.90
19037;DHT22;9651;49.138;8.900;2024-02-14T04:44:48;5.30;99.90
19037;DHT22;9651;49.138;8.900;2024-02-14T04:48:51;5.40;99.90
19037;DHT22;9651;49.138;8.900;2024-02-14T04:52:54;5.40;99.90
19037;DHT22;9651;49.138;8.900;2024-02-14T04:56:56;5.40;99.90
19037;DHT22;9651;49.138;8.900;2024-02-14T05:00:57;5.40;99.90
19037;DHT22;9651;49.138;8.900;2024-02-14T05:05:01;5.50;99.90
19037;DHT22;9651;49.138;8.900;2024-02-14T05:09:03;5.50;99.90
19037;DHT22;9651;49.138;8.900;2024-02-14T05:13:05;5.60;99.90
19037;DHT22;9651;49.138;8.900;2024-02-14T05:17:07;5.60;99.90
19037;DHT22;9651;49.138;8.900;2024-02-14T05:21:11;5.60;99.90
19037;DHT22;9651;49.138;8.900;2024-02-14T05:25:13;5.70;99.90
19037;DHT22;9651;49.138;8.900;2024-02-14T05:29:15;5.70;99.90
19037;DHT22;9651;49.138;8.900;2024-02-14T05:33:19;5.70;99.90
19037;DHT22;9651;49.138;8.900;2024-02-14T05:37:24;5.70;99.90
19037;DHT22;9651;49.138;8.900;2024-02-14T05:41:28;5.80;99.90
19037;DHT22;9651;49.138;8.900;2024-02-14T05:45:31;5.80;99.90
19037;DHT22;9651;49.138;8.900;2024-02-14T05:49:32;5.70;99.90
19037;DHT22;9651;49.138;8.900;2024-02-14T05:53:36;5.70;99.90
19037;DHT22;9651;49.138;8.900;2024-02-14T05:57:37;5.60;99.90
19037;DHT22;9651;49.138;8.900;2024-02-14T06:01:40;5.60;99.90
19037;DHT22;9651;49.138;8.900;2024-02-14T06:05:41;5.50;99.90
19037;DHT22;9651;49.138;8.900;2024-02-14T06:09:45;5.50;99.90
19037;DHT22;9651;49.138;8.900;2024-02-14T06:13:47;5.50;99.90
19037;DHT22;9651;49.138;8.900;2024-02-14T06:17:49;5.30;99.90
19037;DHT22;9651;49.138;8.900;2024-02-14T06:21:51;5.30;99.90
19037;DHT22;9651;49.138;8.900;2024-02-14T06:25:54;5.20;99.90
19037;DHT22;9651;49.138;8.900;2024-02-14T06:29:56;5.30;99.90
19037;DHT22;9651;49.138;8.900;2024-02-14T06:34:00;5.30;99.90
19037;DHT22;9651;49.138;8.900;2024-02-14T06:38:01;5.30;99.90
19037;DHT22;9651;49.138;8.900;2024-02-14T06:42:05;5.30;99.90
19037;DHT22;9651;49.138;8.900;2024-02-14T06:46:07;5.40;99.90
19037;DHT22;9651;49.138;8.900;2024-02-14T06:50:09;5.50;99.90
19037;DHT22;9651;49.138;8.900;2024-02-14T06:54:11;5.50;99.90
19037;DHT22;9651;49.138;8.900;2024-02-14T06:58:15;5.60;99.90
19037;DHT22;9651;49.138;8.900;2024-02-14T07:02:17;5.60;99.90
19037;DHT22;9651;49.138;8.900;2024-02-14T07:06:19;5.70;99.90
19037;DHT22;9651;49.138;8.900;2024-02-14T07:10:21;5.70;99.90
19037;DHT22;9651;49.138;8.900;2024-02-14T07:14:24;5.80;99.90
19037;DHT22;9651;49.138;8.900;2024-02-14T07:18:26;5.80;99.90
19037;DHT22;9651;49.138;8.900;2024-02-14T07:22:28;5.90;99.90
19037;DHT22;9651;49.138;8.900;2024-02-14T07:26:31;5.90;99.90
19037;DHT22;9651;49.138;8.900;2024-02-14T07:30:34;5.90;99.90
19037;DHT22;9651;49.138;8.900;2024-02-14T07:34:38;6.00;99.90
19037;DHT22;9651;49.138;8.900;2024-02-14T07:38:41;6.10;99.90
19037;DHT22;9651;49.138;8.900;2024-02-14T07:42:44;6.20;99.90
19037;DHT22;9651;49.138;8.900;2024-02-14T07:46:49;6.30;99.90
19037;DHT22;9651;49.138;8.900;2024-02-14T07:50:51;6.40;99.90
19037;DHT22;9651;49.138;8.900;2024-02-14T07:54:52;6.50;99.90
19037;DHT22;9651;49.138;8.900;2024-02-14T07:58:55;6.60;99.90
19037;DHT22;9651;49.138;8.900;2024-02-14T08:02:58;6.60;99.90
19037;DHT22;9651;49.138;8.900;2024-02-14T08:07:04;6.70;99.90
19037;DHT22;9651;49.138;8.900;2024-02-14T08:11:06;6.70;99.90
19037;DHT22;9651;49.138;8.900;2024-02-14T08:15:08;6.90;99.90
19037;DHT22;9651;49.138;8.900;2024-02-14T08:19:12;6.90;99.90
19037;DHT22;9651;49.138;8.900;2024-02-14T08:23:14;7.00;99.90
19037;DHT22;9651;49.138;8.900;2024-02-14T08:27:15;7.00;99.90
19037;DHT22;9651;49.138;8.900;2024-02-14T08:31:17;7.20;99.90
19037;DHT22;9651;49.138;8.900;2024-02-14T08:35:21;7.40;99.90
19037;DHT22;9651;49.138;8.900;2024-02-14T08:39:23;7.60;99.90
19037;DHT22;9651;49.138;8.900;2024-02-14T08:43:25;7.70;99.90
19037;DHT22;9651;49.138;8.900;2024-02-14T08:47:28;7.90;99.90
19037;DHT22;9651;49.138;8.900;2024-02-14T08:51:32;8.10;99.90
19037;DHT22;9651;49.138;8.900;2024-02-14T08:55:34;8.30;99.90
19037;DHT22;9651;49.138;8.900;2024-02-14T08:59:37;8.40;99.90
19037;DHT22;9651;49.138;8.900;2024-02-14T09:03:39;8.50;99.90
19037;DHT22;9651;49.138;8.900;2024-02-14T09:07:45;8.60;99.90
19037;DHT22;9651;49.138;8.900;2024-02-14T09:11:47;8.70;99.90
19037;DHT22;9651;49.138;8.900;2024-02-14T09:15:49;8.80;99.90
19037;DHT22;9651;49.138;8.900;2024-02-14T09:19:51;8.90;99.90
19037;DHT22;9651;49.138;8.900;2024-02-14T09:23:56;9.00;99.90
19037;DHT22;9651;49.138;8.900;2024-02-14T09:27:58;9.20;99.90
19037;DHT22;9651;49.138;8.900;2024-02-14T09:32:00;9.30;99.90
19037;DHT22;9651;49.138;8.900;2024-02-14T09:36:02;9.50;99.90
19037;DHT22;9651;49.138;8.900;2024-02-14T09:40:07;9.60;99.90
19037;DHT22;9651;49.138;8.900;2024-02-14T09:44:13;9.70;99.90
19037;DHT22;9651;49.138;8.900;2024-02-14T09:48:16;9.90;99.90
19037;DHT22;9651;49.138;8.900;2024-02-14T09:52:19;10.00;99.90
19037;DHT22;9651;49.138;8.900;2024-02-14T09:56:23;10.20;99.90
19037;DHT22;9651;49.138;8.900;2024-02-14T10:00:25;10.50;99.90
19037;DHT22;9651;49.138;8.900;2024-02-14T10:04:27;10.80;99.90
19037;DHT22;9651;49.138;8.900;2024-02-14T10:08:30;11.00;99.90
19037;DHT22;9651;49.138;8.900;2024-02-14T10:12:33;11.20;99.90
19037;DHT22;9651;49.138;8.900;2024-02-14T10:16:35;11.40;99.90
19037;DHT22;9651;49.138;8.900;2024-02-14T10:20:37;11.40;99.90
19037;DHT22;9651;49.138;8.900;2024-02-14T10:24:46;11.70;99.90
19037;DHT22;9651;49.138;8.900;2024-02-14T10:28:49;11.80;99.90
19037;DHT22;9651;49.138;8.900;2024-02-14T10:32:52;11.90;99.90
19037;DHT22;9651;49.138;8.900;2024-02-14T10:36:56;11.90;99.90
19037;DHT22;9651;49.138;8.900;2024-02-14T10:41:00;11.90;99.90
19037;DHT22;9651;49.138;8.900;2024-02-14T10:45:05;11.90;99.90
19037;DHT22;9651;49.138;8.900;2024-02-14T10:49:08;11.80;99.90
19037;DHT22;9651;49.138;8.900;2024-02-14T10:53:13;11.80;99.90
19037;DHT22;9651;49.138;8.900;2024-02-14T10:57:17;11.90;99.90
19037;DHT22;9651;49.138;8.900;2024-02-14T11:01:20;11.90;99.90
19037;DHT22;9651;49.138;8.900;2024-02-14T11:05:25;11.90;99.90
19037;DHT22;9651;49.138;8.900;2024-02-14T11:09:31;12.00;99.90
19037;DHT22;9651;49.138;8.900;2024-02-14T11:13:35;12.20;99.90
19037;DHT22;9651;49.138;8.900;2024-02-14T11:17:39;12.10;99.90
19037;DHT22;9651;49.138;8.900;2024-02-14T11:21:42;12.00;99.90
19037;DHT22;9651;49.138;8.900;2024-02-14T11:25:44;11.90;99.90
19037;DHT22;9651;49.138;8.900;2024-02-14T11:29:51;12.00;99.90
19037;DHT22;9651;49.138;8.900;2024-02-14T11:33:54;12.10;99.90
19037;DHT22;9651;49.138;8.900;2024-02-14T11:37:57;12.10;99.90
19037;DHT22;9651;49.138;8.900;2024-02-14T11:42:01;12.20;99.90
19037;DHT22;9651;49.138;8.900;2024-02-14T11:46:03;12.30;99.90
19037;DHT22;9651;49.138;8.900;2024-02-14T11:50:08;12.40;99.90
19037;DHT22;9651;49.138;8.900;2024-02-14T11:54:11;12.50;99.90
19037;DHT22;9651;49.138;8.900;2024-02-14T11:58:14;12.90;99.90
19037;DHT22;9651;49.138;8.900;2024-02-14T12:02:16;13.10;99.90
19037;DHT22;9651;49.138;8.900;2024-02-14T12:06:21;13.10;99.90
19037;DHT22;9651;49.138;8.900;2024-02-14T12:10:23;13.20;99.90
19037;DHT22;9651;49.138;8.900;2024-02-14T12:14:27;13.20;99.90
19037;DHT22;9651;49.138;8.900;2024-02-14T12:18:29;13.20;99.90
19037;DHT22;9651;49.138;8.900;2024-02-14T12:22:32;13.30;99.90
19037;DHT22;9651;49.138;8.900;2024-02-14T12:26:35;13.30;99.90
19037;DHT22;9651;49.138;8.900;2024-02-14T12:30:44;13.20;99.90
19037;DHT22;9651;49.138;8.900;2024-02-14T12:34:47;13.20;99.90
19037;DHT22;9651;49.138;8.900;2024-02-14T12:38:50;13.40;99.90
19037;DHT22;9651;49.138;8.900;2024-02-14T12:42:53;13.60;99.90
19037;DHT22;9651;49.138;8.900;2024-02-14T12:46:55;13.70;99.90
19037;DHT22;9651;49.138;8.900;2024-02-14T12:50:57;13.80;99.90
19037;DHT22;9651;49.138;8.900;2024-02-14T12:55:00;14.30;99.90
19037;DHT22;9651;49.138;8.900;2024-02-14T12:59:02;14.70;99.90
19037;DHT22;9651;49.138;8.900;2024-02-14T13:03:04;14.90;99.90
19037;DHT22;9651;49.138;8.900;2024-02-14T13:07:06;15.10;99.90
19037;DHT22;9651;49.138;8.900;2024-02-14T13:11:11;15.30;99.90
19037;DHT22;9651;49.138;8.900;2024-02-14T13:15:15;15.20;99.90
19037;DHT22;9651;49.138;8.900;2024-02-14T13:19:17;15.00;99.90
19037;DHT22;9651;49.138;8.900;2024-02-14T13:23:19;14.90;99.90
19037;DHT22;9651;49.138;8.900;2024-02-14T13:27:22;14.60;99.90
19037;DHT22;9651;49.138;8.900;2024-02-14T13:31:24;14.20;99.90
19037;DHT22;9651;49.138;8.900;2024-02-14T13:35:26;14.00;99.90
19037;DHT22;9651;49.138;8.900;2024-02-14T13:39:28;13.90;99.90
19037;DHT22;9651;49.138;8.900;2024-02-14T13:43:32;13.80;99.90
19037;DHT22;9651;49.138;8.900;2024-02-14T13:47:33;13.60;99.90
19037;DHT22;9651;49.138;8.900;2024-02-14T13:51:35;13.40;99.90
19037;DHT22;9651;49.138;8.900;2024-02-14T13:55:37;13.50;99.90
19037;DHT22;9651;49.138;8.900;2024-02-14T13:59:41;13.60;99.90
19037;DHT22;9651;49.138;8.900;2024-02-14T14:03:42;13.50;99.90
19037;DHT22;9651;49.138;8.900;2024-02-14T14:07:44;13.60;99.90
19037;DHT22;9651;49.138;8.900;2024-02-14T14:11:47;13.50;99.90
19037;DHT22;9651;49.138;8.900;2024-02-14T14:15:53;13.50;99.90
19037;DHT22;9651;49.138;8.900;2024-02-14T14:19:56;13.50;99.90
19037;DHT22;9651;49.138;8.900;2024-02-14T14:23:57;13.50;99.90
19037;DHT22;9651;49.138;8.900;2024-02-14T14:27:59;13.50;99.90
19037;DHT22;9651;49.138;8.900;2024-02-14T14:32:05;13.40;99.90
19037;DHT22;9651;49.138;8.900;2024-02-14T14:36:07;13.30;99.90
19037;DHT22;9651;49.138;8.900;2024-02-14T14:40:09;13.20;99.90
19037;DHT22;9651;49.138;8.900;2024-02-14T14:44:11;13.10;99.90
19037;DHT22;9651;49.138;8.900;2024-02-14T14:48:15;13.10;99.90
19037;DHT22;9651;49.138;8.900;2024-02-14T14:52:17;13.20;99.90
19037;DHT22;9651;49.138;8.900;2024-02-14T14:56:19;13.40;99.90
19037;DHT22;9651;49.138;8.900;2024-02-14T15:00:26;13.40;99.90
19037;DHT22;9651;49.138;8.900;2024-02-14T15:04:29;13.40;99.90
19037;DHT22;9651;49.138;8.900;2024-02-14T15:08:31;13.40;99.90
19037;DHT22;9651;49.138;8.900;2024-02-14T15:12:33;13.30;99.90
19037;DHT22;9651;49.138;8.900;2024-02-14T15:16:36;13.30;99.90
19037;DHT22;9651;49.138;8.900;2024-02-14T15:20:40;13.20;99.90
19037;DHT22;9651;49.138;8.900;2024-02-14T15:24:41;13.20;99.90
19037;DHT22;9651;49.138;8.900;2024-02-14T15:28:45;13.10;99.90
19037;DHT22;9651;49.138;8.900;2024-02-14T15:32:56;13.20;99.90
19037;DHT22;9651;49.138;8.900;2024-02-14T15:37:16;13.20;99.90
19037;DHT22;9651;49.138;8.900;2024-02-14T15:41:19;13.10;99.90
19037;DHT22;9651;49.138;8.900;2024-02-14T15:45:21;13.10;99.90
19037;DHT22;9651;49.138;8.900;2024-02-14T15:49:23;13.00;99.90
19037;DHT22;9651;49.138;8.900;2024-02-14T15:53:26;13.00;99.90
19037;DHT22;9651;49.138;8.900;2024-02-14T15:57:30;13.00;99.90
19037;DHT22;9651;49.138;8.900;2024-02-14T16:01:32;13.00;99.90
19037;DHT22;9651;49.138;8.900;2024-02-14T16:05:34;12.90;99.90
19037;DHT22;9651;49.138;8.900;2024-02-14T16:09:37;12.90;99.90
19037;DHT22;9651;49.138;8.900;2024-02-14T16:13:39;12.80;99.90
19037;DHT22;9651;49.138;8.900;2024-02-14T16:17:41;12.80;99.90
19037;DHT22;9651;49.138;8.900;2024-02-14T16:21:43;12.70;99.90
19037;DHT22;9651;49.138;8.900;2024-02-14T16:25:46;12.70;99.90
19037;DHT22;9651;49.138;8.900;2024-02-14T16:29:49;12.60;99.90
19037;DHT22;9651;49.138;8.900;2024-02-14T16:33:51;12.60;99.90
19037;DHT22;9651;49.138;8.900;2024-02-14T16:37:53;12.50;99.90
19037;DHT22;9651;49.138;8.900;2024-02-14T16:41:56;12.50;99.90
19037;DHT22;9651;49.138;8.900;2024-02-14T16:45:58;12.40;99.90
19037;DHT22;9651;49.138;8.900;2024-02-14T16:50:00;12.30;99.90
19037;DHT22;9651;49.138;8.900;2024-02-14T16:54:02;12.30;99.90
19037;DHT22;9651;49.138;8.900;2024-02-14T16:58:06;12.30;99.90
19037;DHT22;9651;49.138;8.900;2024-02-14T17:02:08;12.20;99.90
19037;DHT22;9651;49.138;8.900;2024-02-14T17:06:10;12.20;99.90
19037;DHT22;9651;49.138;8.900;2024-02-14T17:10:12;12.10;99.90
19037;DHT22;9651;49.138;8.900;2024-02-14T17:14:15;12.10;99.90
19037;DHT22;9651;49.138;8.900;2024-02-14T17:18:17;12.10;99.90
19037;DHT22;9651;49.138;8.900;2024-02-14T17:22:19;12.10;99.90
19037;DHT22;9651;49.138;8.900;2024-02-14T17:26:21;12.00;99.90
19037;DHT22;9651;49.138;8.900;2024-02-14T17:30:24;11.90;99.90
19037;DHT22;9651;49.138;8.900;2024-02-14T17:34:26;11.90;99.90
19037;DHT22;9651;49.138;8.900;2024-02-14T17:38:31;11.80;99.90
19037;DHT22;9651;49.138;8.900;2024-02-14T17:42:33;11.80;99.90
19037;DHT22;9651;49.138;8.900;2024-02-14T17:46:37;11.80;99.90
19037;DHT22;9651;49.138;8.900;2024-02-14T17:50:39;11.80;99.90
19037;DHT22;9651;49.138;8.900;2024-02-14T17:54:41;11.80;99.90
19037;DHT22;9651;49.138;8.900;2024-02-14T17:58:45;11.70;99.90
19037;DHT22;9651;49.138;8.900;2024-02-14T18:02:48;11.70;99.90
19037;DHT22;9651;49.138;8.900;2024-02-14T18:06:50;11.70;99.90
19037;DHT22;9651;49.138;8.900;2024-02-14T18:10:52;11.60;99.90
19037;DHT22;9651;49.138;8.900;2024-02-14T18:14:54;11.60;99.90
19037;DHT22;9651;49.138;8.900;2024-02-14T18:18:59;11.60;99.90
19037;DHT22;9651;49.138;8.900;2024-02-14T18:23:01;11.60;99.90
19037;DHT22;9651;49.138;8.900;2024-02-14T18:27:03;11.60;99.90
19037;DHT22;9651;49.138;8.900;2024-02-14T18:31:05;11.60;99.90
19037;DHT22;9651;49.138;8.900;2024-02-14T18:35:14;11.60;99.90
19037;DHT22;9651;49.138;8.900;2024-02-14T18:39:16;11.60;99.90
19037;DHT22;9651;49.138;8.900;2024-02-14T18:43:18;11.60;99.90
19037;DHT22;9651;49.138;8.900;2024-02-14T18:47:20;11.60;99.90
19037;DHT22;9651;49.138;8.900;2024-02-14T18:51:23;11.60;99.90
19037;DHT22;9651;49.138;8.900;2024-02-14T18:55:25;11.70;99.90
19037;DHT22;9651;49.138;8.900;2024-02-14T18:59:27;11.60;99.90
19037;DHT22;9651;49.138;8.900;2024-02-14T19:03:29;11.60;99.90
19037;DHT22;9651;49.138;8.900;2024-02-14T19:07:32;11.70;99.90
19037;DHT22;9651;49.138;8.900;2024-02-14T19:11:34;11.70;99.90
19037;DHT22;9651;49.138;8.900;2024-02-14T19:15:36;11.60;99.90
19037;DHT22;9651;49.138;8.900;2024-02-14T19:19:39;11.60;99.90
19037;DHT22;9651;49.138;8.900;2024-02-14T19:23:42;11.60;99.90
19037;DHT22;9651;49.138;8.900;2024-02-14T19:27:44;11.50;99.90
19037;DHT22;9651;49.138;8.900;2024-02-14T19:31:46;11.50;99.90
19037;DHT22;9651;49.138;8.900;2024-02-14T19:35:48;11.40;99.90
19037;DHT22;9651;49.138;8.900;2024-02-14T19:39:53;11.40;99.90
19037;DHT22;9651;49.138;8.900;2024-02-14T19:43:54;11.30;99.90
19037;DHT22;9651;49.138;8.900;2024-02-14T19:47:57;11.20;99.90
19037;DHT22;9651;49.138;8.900;2024-02-14T19:51:59;11.10;99.90
19037;DHT22;9651;49.138;8.900;2024-02-14T19:56:05;11.10;99.90
19037;DHT22;9651;49.138;8.900;2024-02-14T20:00:08;11.10;99.90
19037;DHT22;9651;49.138;8.900;2024-02-14T20:04:13;11.10;99.90
19037;DHT22;9651;49.138;8.900;2024-02-14T20:08:15;11.10;99.90
19037;DHT22;9651;49.138;8.900;2024-02-14T20:12:19;11.10;99.90
19037;DHT22;9651;49.138;8.900;2024-02-14T20:16:21;11.10;99.90
19037;DHT22;9651;49.138;8.900;2024-02-14T20:20:23;11.10;99.90
19037;DHT22;9651;49.138;8.900;2024-02-14T20:24:25;11.10;99.90
19037;DHT22;9651;49.138;8.900;2024-02-14T20:28:28;11.10;99.90
19037;DHT22;9651;49.138;8.900;2024-02-14T20:32:30;11.20;99.90
19037;DHT22;9651;49.138;8.900;2024-02-14T20:36:32;11.20;99.90
19037;DHT22;9651;49.138;8.900;2024-02-14T20:40:37;11.20;99.90
19037;DHT22;9651;49.138;8.900;2024-02-14T20:44:41;11.10;99.90
19037;DHT22;9651;49.138;8.900;2024-02-14T20:48:43;11.20;99.90
19037;DHT22;9651;49.138;8.900;2024-02-14T20:52:45;11.10;99.90
19037;DHT22;9651;49.138;8.900;2024-02-14T20:56:47;11.00;99.90
19037;DHT22;9651;49.138;8.900;2024-02-14T21:00:50;11.00;99.90
19037;DHT22;9651;49.138;8.900;2024-02-14T21:04:52;11.00;99.90
19037;DHT22;9651;49.138;8.900;2024-02-14T21:08:54;11.00;99.90
19037;DHT22;9651;49.138;8.900;2024-02-14T21:12:56;10.90;99.90
19037;DHT22;9651;49.138;8.900;2024-02-14T21:16:59;10.90;99.90
19037;DHT22;9651;49.138;8.900;2024-02-14T21:21:01;10.90;99.90
19037;DHT22;9651;49.138;8.900;2024-02-14T21:25:07;10.90;99.90
19037;DHT22;9651;49.138;8.900;2024-02-14T21:29:09;10.90;99.90
19037;DHT22;9651;49.138;8.900;2024-02-14T21:33:12;10.90;99.90
19037;DHT22;9651;49.138;8.900;2024-02-14T21:37:14;10.90;99.90
19037;DHT22;9651;49.138;8.900;2024-02-14T21:41:16;10.90;99.90
19037;DHT22;9651;49.138;8.900;2024-02-14T21:45:18;10.90;99.90
19037;DHT22;9651;49.138;8.900;2024-02-14T21:49:22;10.80;99.90
19037;DHT22;9651;49.138;8.900;2024-02-14T21:53:24;10.80;99.90
19037;DHT22;9651;49.138;8.900;2024-02-14T21:57:26;10.80;99.90
19037;DHT22;9651;49.138;8.900;2024-02-14T22:01:28;10.80;99.90
19037;DHT22;9651;49.138;8.900;2024-02-14T22:05:31;10.80;99.90
19037;DHT22;9651;49.138;8.900;2024-02-14T22:09:33;10.70;99.90
19037;DHT22;9651;49.138;8.900;2024-02-14T22:13:35;10.70;99.90
19037;DHT22;9651;49.138;8.900;2024-02-14T22:17:37;10.70;99.90
19037;DHT22;9651;49.138;8.900;2024-02-14T22:21:40;10.60;99.90
19037;DHT22;9651;49.138;8.900;2024-02-14T22:25:42;10.60;99.90
19037;DHT22;9651;49.138;8.900;2024-02-14T22:29:44;10.50;99.90
19037;DHT22;9651;49.138;8.900;2024-02-14T22:33:46;10.50;99.90
19037;DHT22;9651;49.138;8.900;2024-02-14T22:37:51;10.50;99.90
19037;DHT22;9651;49.138;8.900;2024-02-14T22:41:53;10.50;99.90
19037;DHT22;9651;49.138;8.900;2024-02-14T22:45:55;10.50;99.90
19037;DHT22;9651;49.138;8.900;2024-02-14T22:49:57;10.50;99.90
19037;DHT22;9651;49.138;8.900;2024-02-14T22:54:00;10.50;99.90
19037;DHT22;9651;49.138;8.900;2024-02-14T22:58:03;10.50;99.90
19037;DHT22;9651;49.138;8.900;2024-02-14T23:02:05;10.50;99.90
19037;DHT22;9651;49.138;8.900;2024-02-14T23:06:09;10.50;99.90
19037;DHT22;9651;49.138;8.900;2024-02-14T23:10:12;10.50;99.90
19037;DHT22;9651;49.138;8.900;2024-02-14T23:14:16;10.50;99.90
19037;DHT22;9651;49.138;8.900;2024-02-14T23:18:18;10.50;99.90
19037;DHT22;9651;49.138;8.900;2024-02-14T23:22:20;10.50;99.90
19037;DHT22;9651;49.138;8.900;2024-02-14T23:26:24;10.50;99.90
19037;DHT22;9651;49.138;8.900;2024-02-14T23:30:26;10.40;99.90
19037;DHT22;9651;49.138;8.900;2024-02-14T23:34:29;10.50;99.90
19037;DHT22;9651;49.138;8.900;2024-02-14T23:38:31;10.50;99.90
19037;DHT22;9651;49.138;8.900;2024-02-14T23:42:34;10.40;99.90
19037;DHT22;9651;49.138;8.900;2024-02-14T23:46:36;10.30;99.90
19037;DHT22;9651;49.138;8.900;2024-02-14T23:50:38;10.30;99.90
19037;DHT22;9651;49.138;8.900;2024-02-14T23:54:40;10.30;99.90
19037;DHT22;9651;49.138;8.900;2024-02-14T23:58:43;10.20;99.90
